createdAt,value
2018-05-07T00:01:27.522Z,13.20
2018-05-07T00:03:56.845Z,13.20
2018-05-07T00:06:45.630Z,13.10
2018-05-07T00:09:14.136Z,13.10
2018-05-07T00:11:43.097Z,13.00
2018-05-07T00:14:19.953Z,13.00
2018-05-07T00:16:49.290Z,12.90
2018-05-07T00:19:18.394Z,12.90
2018-05-07T00:21:46.696Z,12.90
2018-05-07T00:24:14.853Z,12.80
2018-05-07T00:26:42.437Z,12.80
2018-05-07T00:29:15.697Z,12.70
2018-05-07T00:31:45.523Z,12.70
2018-05-07T00:34:17.537Z,12.70
2018-05-07T00:36:45.988Z,12.70
2018-05-07T00:39:14.631Z,12.70
2018-05-07T00:41:46.238Z,12.60
2018-05-07T00:44:15.281Z,12.60
2018-05-07T00:46:42.849Z,12.50
2018-05-07T00:49:11.764Z,12.50
2018-05-07T00:51:40.004Z,12.50
2018-05-07T00:54:07.784Z,12.40
2018-05-07T00:56:37.539Z,12.30
2018-05-07T00:59:05.573Z,12.30
2018-05-07T01:01:38.491Z,12.30
2018-05-07T01:04:06.051Z,12.20
2018-05-07T01:06:33.798Z,12.20
2018-05-07T01:09:01.717Z,12.10
2018-05-07T01:11:30.863Z,12.10
2018-05-07T01:13:58.596Z,12.10
2018-05-07T01:16:26.620Z,12.20
2018-05-07T01:18:54.998Z,12.10
2018-05-07T01:21:24.697Z,12.10
2018-05-07T01:23:56.056Z,12.00
2018-05-07T01:26:25.833Z,12.10
2018-05-07T01:28:54.083Z,12.00
2018-05-07T01:31:25.524Z,12.00
2018-05-07T01:33:56.127Z,11.90
2018-05-07T01:36:24.258Z,11.80
2018-05-07T01:38:53.129Z,11.80
2018-05-07T01:41:22.184Z,11.80
2018-05-07T01:43:49.718Z,11.80
2018-05-07T01:46:18.469Z,11.70
2018-05-07T01:48:46.421Z,11.70
2018-05-07T01:51:15.125Z,11.70
2018-05-07T01:53:43.319Z,11.70
2018-05-07T01:56:12.669Z,11.70
2018-05-07T01:58:42.675Z,11.60
2018-05-07T02:01:11.613Z,11.60
2018-05-07T02:03:41.051Z,11.60
2018-05-07T02:06:12.125Z,11.50
2018-05-07T02:08:42.270Z,11.40
2018-05-07T02:11:15.046Z,11.40
2018-05-07T02:13:42.586Z,11.40
2018-05-07T02:16:11.427Z,11.40
2018-05-07T02:18:39.192Z,11.40
2018-05-07T02:21:07.017Z,11.30
2018-05-07T02:23:34.583Z,11.30
2018-05-07T02:26:02.154Z,11.20
2018-05-07T02:28:30.114Z,11.20
2018-05-07T02:30:58.754Z,11.10
2018-05-07T02:33:26.697Z,11.10
2018-05-07T02:35:54.928Z,11.00
2018-05-07T02:38:24.849Z,11.10
2018-05-07T02:40:52.379Z,11.00
2018-05-07T02:43:22.881Z,10.80
2018-05-07T02:45:52.098Z,10.80
2018-05-07T02:48:19.792Z,10.80
2018-05-07T02:50:47.332Z,10.80
2018-05-07T02:53:14.867Z,10.80
2018-05-07T02:55:42.411Z,10.70
2018-05-07T02:58:12.109Z,10.70
2018-05-07T03:00:40.110Z,10.60
2018-05-07T03:03:07.650Z,10.60
2018-05-07T03:05:35.667Z,10.60
2018-05-07T03:08:04.178Z,10.50
2018-05-07T03:10:33.583Z,10.50
2018-05-07T03:13:01.270Z,10.50
2018-05-07T03:15:28.925Z,10.50
2018-05-07T03:17:56.632Z,10.40
2018-05-07T03:20:24.733Z,10.40
2018-05-07T03:23:27.674Z,10.40
2018-05-07T03:25:55.847Z,10.40
2018-05-07T03:28:26.466Z,10.40
2018-05-07T03:30:54.692Z,10.30
2018-05-07T03:33:29.343Z,10.30
2018-05-07T03:36:03.288Z,10.20
2018-05-07T03:38:58.868Z,10.20
2018-05-07T03:41:30.974Z,10.10
2018-05-07T03:44:02.308Z,10.10
2018-05-07T03:46:30.535Z,10.10
2018-05-07T03:49:00.508Z,10.10
2018-05-07T03:51:31.457Z,10.10
2018-05-07T03:54:38.888Z,10.10
2018-05-07T03:57:10.562Z,10.10
2018-05-07T03:59:39.437Z,10.10
2018-05-07T04:02:11.081Z,10.10
2018-05-07T04:04:39.789Z,10.00
2018-05-07T04:07:08.514Z,9.90
2018-05-07T04:09:39.468Z,9.90
2018-05-07T04:12:09.281Z,9.90
2018-05-07T04:14:40.245Z,9.90
2018-05-07T04:17:22.933Z,9.90
2018-05-07T04:20:02.642Z,9.80
2018-05-07T04:22:44.943Z,9.80
2018-05-07T04:25:21.638Z,9.80
2018-05-07T04:27:53.361Z,9.70
2018-05-07T04:30:25.837Z,9.80
2018-05-07T04:32:53.653Z,9.70
2018-05-07T04:35:26.490Z,9.70
2018-05-07T04:37:57.717Z,9.70
2018-05-07T04:47:09.091Z,9.80
2018-05-07T04:49:37.582Z,9.80
2018-05-07T04:52:05.414Z,9.80
2018-05-07T04:54:36.129Z,9.90
2018-05-07T04:57:06.244Z,9.90
2018-05-07T04:59:38.397Z,10.00
2018-05-07T05:02:07.353Z,10.00
2018-05-07T05:04:35.666Z,10.00
2018-05-07T05:07:04.647Z,10.10
2018-05-07T05:10:07.507Z,10.10
2018-05-07T05:12:37.837Z,10.30
2018-05-07T05:15:05.891Z,10.30
2018-05-07T05:17:33.494Z,10.40
2018-05-07T05:20:01.645Z,10.50
2018-05-07T05:22:36.320Z,10.50
2018-05-07T05:25:12.855Z,10.60
2018-05-07T05:27:45.481Z,10.60
2018-05-07T05:30:18.061Z,10.70
2018-05-07T05:32:46.462Z,10.80
2018-05-07T05:35:19.786Z,11.10
2018-05-07T05:37:48.049Z,11.20
2018-05-07T05:40:17.784Z,11.30
2018-05-07T05:42:47.807Z,11.40
2018-05-07T05:45:18.719Z,11.30
2018-05-07T05:47:47.189Z,11.40
2018-05-07T05:50:15.210Z,11.70
2018-05-07T05:52:43.141Z,11.80
2018-05-07T05:55:25.771Z,12.10
2018-05-07T05:57:54.115Z,12.10
2018-05-07T06:00:27.594Z,12.00
2018-05-07T06:02:57.446Z,12.10
2018-05-07T06:05:26.770Z,12.10
2018-05-07T06:07:55.697Z,12.30
2018-05-07T06:10:38.615Z,12.30
2018-05-07T06:13:07.258Z,12.40
2018-05-07T06:15:35.061Z,12.40
2018-05-07T06:18:02.607Z,12.40
2018-05-07T06:20:31.950Z,12.50
2018-05-07T06:22:59.495Z,12.60
2018-05-07T06:25:27.925Z,12.70
2018-05-07T06:27:55.959Z,12.80
2018-05-07T06:30:27.907Z,13.20
2018-05-07T06:32:56.077Z,13.10
2018-05-07T06:35:23.627Z,13.50
2018-05-07T06:37:52.218Z,13.40
2018-05-07T06:40:20.230Z,13.50
2018-05-07T06:42:49.596Z,13.60
2018-05-07T06:45:18.607Z,13.60
2018-05-07T06:47:46.220Z,13.70
2018-05-07T06:50:13.820Z,13.70
2018-05-07T23:05:04.479Z,15.40
2018-05-07T23:07:33.087Z,15.20
2018-05-07T23:13:45.415Z,15.10
2018-05-07T23:18:52.091Z,14.90
2018-05-07T23:23:59.937Z,14.90
2018-05-07T23:26:29.220Z,14.80
2018-05-07T23:28:59.332Z,14.70
2018-05-07T23:31:35.830Z,14.70
2018-05-07T23:34:15.825Z,14.70
2018-05-07T23:36:59.573Z,14.60
2018-05-07T23:39:32.315Z,14.50
2018-05-07T23:45:33.978Z,14.40
2018-05-07T23:48:04.793Z,14.30
2018-05-07T23:50:37.595Z,14.40
2018-05-07T23:53:09.412Z,14.30
2018-05-07T23:56:04.912Z,14.30
2018-05-07T23:58:41.395Z,14.20
